createdAt,value
2019-06-26T00:01:19.275Z,86.00
2019-06-26T00:03:51.468Z,86.30
2019-06-26T00:06:23.851Z,86.40
2019-06-26T00:08:56.301Z,86.60
2019-06-26T00:11:29.157Z,86.80
2019-06-26T00:14:01.296Z,86.90
2019-06-26T00:16:33.168Z,87.10
2019-06-26T00:19:05.575Z,87.30
2019-06-26T00:21:37.506Z,87.40
2019-06-26T00:24:09.737Z,87.70
2019-06-26T00:26:42.287Z,87.90
2019-06-26T00:29:14.306Z,88.10
2019-06-26T00:36:51.296Z,88.00
2019-06-26T00:39:23.644Z,89.00
2019-06-26T00:41:55.952Z,89.30
2019-06-26T00:44:27.977Z,89.40
2019-06-26T00:47:00.092Z,89.60
2019-06-26T00:49:32.450Z,89.70
2019-06-26T00:52:04.781Z,90.00
2019-06-26T00:54:37.579Z,90.20
2019-06-26T00:57:09.660Z,90.30
2019-06-26T00:59:41.766Z,90.50
2019-06-26T01:02:14.279Z,90.60
2019-06-26T01:04:48.570Z,90.80
2019-06-26T01:07:20.689Z,90.90
2019-06-26T01:09:52.625Z,91.10
2019-06-26T01:12:24.719Z,91.30
2019-06-26T01:14:56.408Z,91.40
2019-06-26T01:17:28.196Z,91.90
2019-06-26T01:19:59.987Z,91.80
2019-06-26T01:22:31.950Z,92.00
2019-06-26T01:25:04.658Z,92.10
2019-06-26T01:27:37.036Z,92.30
2019-06-26T01:30:09.609Z,92.40
2019-06-26T01:32:42.217Z,92.60
2019-06-26T01:35:14.354Z,92.70
2019-06-26T01:37:46.726Z,92.80
2019-06-26T01:40:18.859Z,93.00
2019-06-26T01:42:50.934Z,93.10
2019-06-26T01:45:23.154Z,93.30
2019-06-26T01:47:55.607Z,93.40
2019-06-26T01:50:27.441Z,93.60
2019-06-26T01:52:59.734Z,93.80
2019-06-26T01:55:31.682Z,94.40
2019-06-26T01:58:03.530Z,94.30
2019-06-26T02:00:35.775Z,94.50
2019-06-26T02:03:07.721Z,94.70
2019-06-26T02:05:39.411Z,94.90
2019-06-26T02:08:11.177Z,95.00
2019-06-26T02:10:43.405Z,95.10
2019-06-26T02:13:15.444Z,95.30
2019-06-26T02:15:47.819Z,95.50
2019-06-26T02:18:42.024Z,95.60
2019-06-26T02:21:14.064Z,95.80
2019-06-26T02:23:46.332Z,96.00
2019-06-26T02:26:18.354Z,96.30
2019-06-26T02:28:50.514Z,96.40
2019-06-26T02:31:22.361Z,96.50
2019-06-26T02:33:55.317Z,96.80
2019-06-26T02:36:27.578Z,97.00
2019-06-26T02:39:00.037Z,97.10
2019-06-26T02:41:32.329Z,97.40
2019-06-26T02:44:04.554Z,97.50
2019-06-26T02:46:36.966Z,97.80
2019-06-26T02:49:09.173Z,97.90
2019-06-26T02:51:41.388Z,98.30
2019-06-26T02:54:13.763Z,98.50
2019-06-26T02:56:45.913Z,98.60
2019-06-26T02:59:18.486Z,99.00
2019-06-26T03:01:50.589Z,99.10
2019-06-26T03:04:22.571Z,99.30
2019-06-26T03:06:55.260Z,99.50
2019-06-26T03:09:27.682Z,99.80
2019-06-26T03:11:59.921Z,99.90
2019-06-26T03:14:32.283Z,99.90
2019-06-26T03:17:04.271Z,99.90
2019-06-26T03:19:36.188Z,99.90
2019-06-26T03:22:08.414Z,99.90
2019-06-26T03:24:41.117Z,99.90
2019-06-26T03:27:12.974Z,99.90
2019-06-26T03:29:45.485Z,99.90
2019-06-26T03:32:18.100Z,99.90
2019-06-26T03:34:50.094Z,99.90
2019-06-26T03:37:21.799Z,99.90
2019-06-26T03:39:53.534Z,99.90
2019-06-26T03:42:25.293Z,99.90
2019-06-26T03:44:57.017Z,99.90
2019-06-26T03:47:28.775Z,99.90
2019-06-26T03:50:00.485Z,99.90
2019-06-26T03:52:32.764Z,99.90
2019-06-26T03:55:04.977Z,99.90
2019-06-26T03:57:36.890Z,99.90
2019-06-26T04:00:08.875Z,99.90
2019-06-26T04:02:41.326Z,99.90
2019-06-26T04:05:13.758Z,99.90
2019-06-26T04:07:45.808Z,99.90
2019-06-26T04:10:17.653Z,99.90
2019-06-26T04:12:49.318Z,99.90
2019-06-26T04:15:21.311Z,99.90
2019-06-26T04:17:53.055Z,99.90
2019-06-26T04:20:25.305Z,99.90
2019-06-26T04:22:57.031Z,99.90
2019-06-26T04:25:28.703Z,99.90
2019-06-26T04:28:00.326Z,99.90
2019-06-26T04:30:32.639Z,99.90
2019-06-26T04:33:04.545Z,99.90
2019-06-26T04:35:36.438Z,99.90
2019-06-26T04:38:09.246Z,99.90
2019-06-26T04:40:41.319Z,99.90
2019-06-26T04:43:13.233Z,99.90
2019-06-26T04:45:57.665Z,99.90
2019-06-26T04:48:19.273Z,99.90
2019-06-26T04:50:51.260Z,99.90
2019-06-26T04:53:23.150Z,99.90
2019-06-26T04:55:55.179Z,99.90
2019-06-26T04:58:26.858Z,99.90
2019-06-26T05:00:58.781Z,99.90
2019-06-26T05:03:30.756Z,99.90
2019-06-26T05:06:02.382Z,99.90
2019-06-26T05:08:34.710Z,99.90
2019-06-26T05:11:06.426Z,99.90
2019-06-26T05:13:38.127Z,99.90
2019-06-26T05:16:14.914Z,99.90
2019-06-26T05:18:43.484Z,99.90
2019-06-26T05:21:15.192Z,99.90
2019-06-26T05:23:47.185Z,99.90
2019-06-26T05:26:18.824Z,99.90
2019-06-26T05:28:50.442Z,99.90
2019-06-26T05:31:22.560Z,99.90
2019-06-26T05:33:54.525Z,99.90
2019-06-26T05:36:26.372Z,99.90
2019-06-26T05:38:58.107Z,99.90
2019-06-26T05:41:30.011Z,99.90
2019-06-26T05:44:02.036Z,99.90
2019-06-26T05:46:34.578Z,99.90
2019-06-26T05:49:06.517Z,99.90
2019-06-26T05:51:38.523Z,99.90
2019-06-26T05:54:10.267Z,99.90
2019-06-26T05:56:45.153Z,99.90
2019-06-26T05:59:16.159Z,99.90
2019-06-26T06:01:47.906Z,99.90
2019-06-26T06:04:19.623Z,99.90
2019-06-26T06:06:51.990Z,99.90
2019-06-26T06:09:24.206Z,99.90
2019-06-26T06:11:56.337Z,99.90
2019-06-26T06:14:28.143Z,99.90
2019-06-26T06:17:00.030Z,99.90
2019-06-26T06:19:31.919Z,99.90
2019-06-26T06:22:03.941Z,99.90
2019-06-26T06:24:35.786Z,99.90
2019-06-26T06:27:07.562Z,99.90
2019-06-26T06:29:39.446Z,99.90
2019-06-26T06:32:11.440Z,99.90
2019-06-26T06:34:43.386Z,99.90
2019-06-26T06:37:15.236Z,99.90
2019-06-26T06:39:47.190Z,99.90
2019-06-26T06:42:19.463Z,99.90
2019-06-26T06:44:51.462Z,99.90
2019-06-26T06:47:23.583Z,99.90
2019-06-26T06:49:55.768Z,99.90
2019-06-26T06:52:28.058Z,99.90
2019-06-26T06:54:59.980Z,99.70
2019-06-26T06:57:31.742Z,99.60
2019-06-26T07:00:04.571Z,99.70
2019-06-26T07:02:36.486Z,99.10
2019-06-26T07:05:08.630Z,98.40
2019-06-26T07:07:40.473Z,98.40
2019-06-26T07:10:12.781Z,97.90
2019-06-26T07:12:45.073Z,97.90
2019-06-26T07:15:18.311Z,97.90
2019-06-26T07:17:50.146Z,97.80
2019-06-26T07:20:23.388Z,96.90
2019-06-26T07:22:55.216Z,96.70
2019-06-26T07:25:27.233Z,97.20
2019-06-26T07:28:01.782Z,97.00
2019-06-26T07:30:33.364Z,96.70
2019-06-26T07:33:05.547Z,96.40
2019-06-26T07:35:37.300Z,96.10
2019-06-26T07:38:09.060Z,95.30
2019-06-26T07:40:40.971Z,95.40
2019-06-26T07:43:16.342Z,95.10
2019-06-26T07:45:47.029Z,94.80
2019-06-26T07:48:18.850Z,94.70
2019-06-26T07:50:50.687Z,94.40
2019-06-26T07:53:22.515Z,94.50
2019-06-26T07:55:54.378Z,95.00
2019-06-26T07:58:26.525Z,94.40
2019-06-26T08:00:58.353Z,94.30
2019-06-26T08:03:30.532Z,95.90
2019-06-26T08:06:02.379Z,94.20
2019-06-26T08:08:34.530Z,94.00
2019-06-26T08:11:06.758Z,93.70
2019-06-26T08:13:38.973Z,93.90
2019-06-26T08:16:11.049Z,93.60
2019-06-26T08:18:42.840Z,93.60
2019-06-26T08:21:14.791Z,93.70
2019-06-26T08:26:18.576Z,92.70
2019-06-26T08:28:50.424Z,93.10
2019-06-26T08:31:22.445Z,93.30
2019-06-26T08:33:54.467Z,92.80
2019-06-26T08:36:26.567Z,92.20
2019-06-26T08:39:00.687Z,92.30
2019-06-26T08:41:32.614Z,92.10
2019-06-26T08:44:04.823Z,92.60
2019-06-26T08:46:36.709Z,92.30
2019-06-26T08:49:24.470Z,92.30
2019-06-26T08:51:42.555Z,92.30
2019-06-26T08:59:18.793Z,99.90
2019-06-26T09:01:50.916Z,99.90
2019-06-26T09:06:55.451Z,91.70
2019-06-26T09:09:27.458Z,91.60
2019-06-26T09:11:59.502Z,91.50
2019-06-26T09:14:31.338Z,91.50
2019-06-26T09:17:03.814Z,91.20
2019-06-26T09:19:36.230Z,91.10
2019-06-26T09:29:47.885Z,88.70
2019-06-26T09:32:21.742Z,89.00
2019-06-26T09:34:53.598Z,89.00
2019-06-26T09:37:25.636Z,89.20
2019-06-26T09:39:58.317Z,89.90
2019-06-26T09:42:30.780Z,88.90
2019-06-26T09:45:03.185Z,87.70
2019-06-26T09:47:40.317Z,87.70
2019-06-26T09:52:45.464Z,87.00
2019-06-26T09:55:18.446Z,87.00
2019-06-26T09:57:50.622Z,87.10
2019-06-26T10:00:24.113Z,86.60
2019-06-26T10:02:55.912Z,86.60
2019-06-26T10:05:27.696Z,85.80
2019-06-26T10:07:59.579Z,86.10
2019-06-26T10:13:03.594Z,85.00
2019-06-26T10:15:35.776Z,85.20
2019-06-26T10:18:07.683Z,84.40
2019-06-26T10:20:40.172Z,84.60
2019-06-26T10:23:12.594Z,84.40
2019-06-26T10:25:44.418Z,83.80
2019-06-26T10:28:16.484Z,83.90
2019-06-26T10:30:48.333Z,83.60
2019-06-26T10:33:21.215Z,83.50
2019-06-26T10:35:53.394Z,83.40
2019-06-26T10:38:25.757Z,83.20
2019-06-26T10:40:57.854Z,82.60
2019-06-26T10:43:33.214Z,82.40
2019-06-26T10:46:05.519Z,82.20
2019-06-26T10:48:38.719Z,81.90
2019-06-26T10:51:10.670Z,82.10
2019-06-26T10:53:43.701Z,80.10
2019-06-26T10:56:18.561Z,80.40
2019-06-26T10:58:50.628Z,80.60
2019-06-26T11:01:23.526Z,79.20
2019-06-26T11:03:56.036Z,79.00
2019-06-26T11:06:30.577Z,78.80
2019-06-26T11:09:05.135Z,78.70
2019-06-26T11:11:37.132Z,77.60
2019-06-26T11:14:10.110Z,77.60
2019-06-26T11:16:42.764Z,77.50
2019-06-26T11:19:15.630Z,77.30
2019-06-26T11:21:48.202Z,77.20
2019-06-26T11:24:22.533Z,76.90
2019-06-26T11:29:28.555Z,75.20
2019-06-26T11:32:00.537Z,75.30
2019-06-26T11:34:32.638Z,75.10
2019-06-26T11:37:04.985Z,76.10
2019-06-26T11:39:48.162Z,76.30
2019-06-26T11:42:31.812Z,76.10
2019-06-26T11:45:03.792Z,76.50
2019-06-26T11:47:36.342Z,75.80
2019-06-26T11:50:09.918Z,75.70
2019-06-26T11:52:42.402Z,75.40
2019-06-26T11:55:17.183Z,75.50
2019-06-26T11:57:49.863Z,74.50
2019-06-26T12:00:23.608Z,74.30
2019-06-26T12:02:56.326Z,73.10
2019-06-26T12:05:29.796Z,72.30
2019-06-26T12:08:02.125Z,72.60
2019-06-26T12:10:35.156Z,73.50
2019-06-26T12:13:07.767Z,72.90
2019-06-26T12:15:40.429Z,72.00
2019-06-26T12:18:12.601Z,72.30
2019-06-26T12:20:45.540Z,72.50
2019-06-26T12:23:17.759Z,71.40
2019-06-26T12:25:50.733Z,71.30
2019-06-26T12:28:23.309Z,71.60
2019-06-26T12:30:56.043Z,71.80
2019-06-26T12:33:28.526Z,71.90
2019-06-26T12:36:00.919Z,72.40
2019-06-26T12:38:33.311Z,72.80
2019-06-26T12:41:06.698Z,73.40
2019-06-26T12:43:39.187Z,73.60
2019-06-26T12:46:11.837Z,73.00
2019-06-26T12:48:44.248Z,74.00
2019-06-26T12:51:16.761Z,73.00
2019-06-26T12:53:49.010Z,73.90
2019-06-26T12:56:21.370Z,74.10
2019-06-26T12:58:53.830Z,73.50
2019-06-26T13:01:27.604Z,74.60
2019-06-26T13:03:59.786Z,74.60
2019-06-26T13:06:32.273Z,74.50
2019-06-26T13:09:06.302Z,73.20
2019-06-26T13:11:38.820Z,73.20
2019-06-26T13:14:11.156Z,72.40
2019-06-26T13:16:43.570Z,73.40
2019-06-26T13:19:15.760Z,73.90
2019-06-26T13:21:48.959Z,74.50
2019-06-26T13:24:21.235Z,73.40
2019-06-26T13:26:54.661Z,72.80
2019-06-26T13:29:27.329Z,72.30
2019-06-26T13:31:59.784Z,72.80
2019-06-26T13:34:32.263Z,73.50
2019-06-26T13:37:07.359Z,74.20
2019-06-26T13:39:39.030Z,75.40
2019-06-26T13:42:12.582Z,74.50
2019-06-26T13:44:44.780Z,74.00
2019-06-26T13:47:17.158Z,74.80
2019-06-26T13:49:49.225Z,74.50
2019-06-26T13:52:21.567Z,74.40
2019-06-26T13:54:57.110Z,74.90
2019-06-26T13:57:28.159Z,74.90
2019-06-26T14:00:00.175Z,75.50
2019-06-26T14:02:33.012Z,75.30
2019-06-26T14:05:05.591Z,75.10
2019-06-26T14:07:37.991Z,75.30
2019-06-26T14:10:10.394Z,75.00
2019-06-26T14:12:43.048Z,75.30
2019-06-26T14:15:16.843Z,76.40
2019-06-26T14:17:49.735Z,77.10
2019-06-26T14:20:23.197Z,76.80
2019-06-26T14:22:55.294Z,76.60
2019-06-26T14:25:28.165Z,77.00
2019-06-26T14:28:02.555Z,75.80
2019-06-26T14:30:35.660Z,76.80
2019-06-26T14:33:07.882Z,77.00
2019-06-26T14:35:40.276Z,77.50
2019-06-26T14:38:12.434Z,77.20
2019-06-26T14:40:45.626Z,76.30
2019-06-26T14:43:17.924Z,75.80
2019-06-26T14:45:50.275Z,75.90
2019-06-26T14:48:22.384Z,75.10
2019-06-26T14:50:55.924Z,75.20
2019-06-26T14:53:28.393Z,76.00
2019-06-26T14:56:01.349Z,75.80
2019-06-26T14:58:36.374Z,75.80
2019-06-26T15:01:08.500Z,75.90
2019-06-26T15:03:40.640Z,75.60
2019-06-26T15:06:17.036Z,75.30
2019-06-26T15:08:47.445Z,75.10
2019-06-26T15:11:19.739Z,75.10
2019-06-26T15:13:51.644Z,75.50
2019-06-26T15:16:24.091Z,75.30
2019-06-26T15:18:56.256Z,75.40
2019-06-26T15:21:28.922Z,76.50
2019-06-26T15:24:01.884Z,76.70
2019-06-26T15:26:34.626Z,76.80
2019-06-26T15:29:07.545Z,77.10
2019-06-26T15:31:40.561Z,76.30
2019-06-26T15:34:12.880Z,76.50
2019-06-26T15:36:45.247Z,76.20
2019-06-26T15:39:17.332Z,76.10
2019-06-26T15:41:50.093Z,75.80
2019-06-26T15:44:22.437Z,75.80
2019-06-26T15:46:54.581Z,75.50
2019-06-26T15:49:26.844Z,74.40
2019-06-26T15:52:14.143Z,74.30
2019-06-26T15:54:34.597Z,74.90
2019-06-26T15:57:07.216Z,74.60
2019-06-26T15:59:39.718Z,74.40
2019-06-26T16:02:12.354Z,74.50
2019-06-26T16:04:45.346Z,74.90
2019-06-26T16:07:18.617Z,74.10
2019-06-26T16:09:50.717Z,74.10
2019-06-26T16:12:23.395Z,74.40
2019-06-26T16:14:55.621Z,74.20
2019-06-26T16:17:39.200Z,73.30
2019-06-26T16:20:12.988Z,73.00
2019-06-26T16:22:45.690Z,73.30
2019-06-26T16:25:18.042Z,73.20
2019-06-26T16:28:04.351Z,73.50
2019-06-26T16:30:24.363Z,73.60
2019-06-26T16:32:57.305Z,73.70
2019-06-26T16:35:29.333Z,73.60
2019-06-26T16:38:01.711Z,74.40
2019-06-26T16:40:33.911Z,74.90
2019-06-26T16:43:06.688Z,75.40
2019-06-26T16:45:39.426Z,76.10
2019-06-26T16:48:12.188Z,76.40
2019-06-26T16:50:44.679Z,76.70
2019-06-26T16:53:16.935Z,77.10
2019-06-26T16:55:49.982Z,77.50
2019-06-26T16:58:22.670Z,77.70
2019-06-26T17:00:54.813Z,78.20
2019-06-26T17:03:28.046Z,78.30
2019-06-26T17:06:00.135Z,78.60
2019-06-26T17:08:32.345Z,78.70
2019-06-26T17:11:04.895Z,78.80
2019-06-26T17:13:37.004Z,78.90
2019-06-26T17:16:09.204Z,78.90
2019-06-26T17:18:41.507Z,78.40
2019-06-26T17:21:13.842Z,78.00
2019-06-26T17:23:46.297Z,77.20
2019-06-26T17:26:18.320Z,77.10
2019-06-26T17:28:51.839Z,76.60
2019-06-26T17:31:24.705Z,76.70
2019-06-26T17:33:56.795Z,77.60
2019-06-26T17:36:29.274Z,76.40
2019-06-26T17:39:01.568Z,76.00
2019-06-26T17:41:33.808Z,75.40
2019-06-26T17:44:07.952Z,75.00
2019-06-26T17:46:40.799Z,75.00
2019-06-26T17:49:13.409Z,74.00
2019-06-26T17:51:45.408Z,74.00
2019-06-26T17:54:17.905Z,74.70
2019-06-26T17:56:50.275Z,73.50
2019-06-26T17:59:24.717Z,73.10
2019-06-26T18:01:56.677Z,72.90
2019-06-26T18:04:29.975Z,72.20
2019-06-26T18:07:02.541Z,72.20
2019-06-26T18:09:36.146Z,72.40
2019-06-26T18:12:08.579Z,72.60
2019-06-26T18:14:43.307Z,72.60
2019-06-26T18:17:22.066Z,73.30
2019-06-26T18:19:53.009Z,73.50
2019-06-26T18:22:24.637Z,73.90
2019-06-26T18:24:57.118Z,74.20
2019-06-26T18:27:29.295Z,74.70
2019-06-26T18:30:01.991Z,75.10
2019-06-26T18:32:34.592Z,75.70
2019-06-26T18:35:07.176Z,76.30
2019-06-26T18:37:41.864Z,76.60
2019-06-26T18:42:47.917Z,78.40
2019-06-26T18:45:20.760Z,78.50
2019-06-26T18:47:53.016Z,78.40
2019-06-26T18:50:25.973Z,78.70
2019-06-26T18:53:00.212Z,78.30
2019-06-26T18:55:33.855Z,78.80
2019-06-26T18:58:06.500Z,79.30
2019-06-26T19:00:39.068Z,80.70
2019-06-26T19:05:43.503Z,80.30
2019-06-26T19:08:15.673Z,81.50
2019-06-26T19:13:21.201Z,82.00
2019-06-26T19:18:26.337Z,83.30
2019-06-26T19:20:58.531Z,84.40
2019-06-26T19:23:30.607Z,84.80
2019-06-26T19:26:03.002Z,85.20
2019-06-26T19:28:35.041Z,85.70
2019-06-26T19:31:08.521Z,86.20
2019-06-26T19:33:40.710Z,86.90
2019-06-26T19:36:13.270Z,87.90
2019-06-26T19:38:45.557Z,88.00
2019-06-26T19:41:17.826Z,88.90
2019-06-26T19:43:49.893Z,89.50
2019-06-26T19:46:24.956Z,89.80
2019-06-26T19:48:57.752Z,90.10
2019-06-26T19:51:30.977Z,90.20
2019-06-26T19:54:03.434Z,90.40
2019-06-26T19:56:35.893Z,90.60
2019-06-26T19:59:09.049Z,90.70
2019-06-26T20:01:41.537Z,90.90
2019-06-26T20:04:13.602Z,91.00
2019-06-26T20:06:46.009Z,91.10
2019-06-26T20:09:18.215Z,91.40
2019-06-26T20:11:50.197Z,91.50
2019-06-26T20:14:23.094Z,91.50
2019-06-26T20:16:55.950Z,91.70
2019-06-26T20:19:28.388Z,92.00
2019-06-26T20:22:01.122Z,91.90
2019-06-26T20:24:44.245Z,92.00
2019-06-26T20:27:09.475Z,92.10
2019-06-26T20:29:41.763Z,92.20
2019-06-26T20:32:15.414Z,92.30
2019-06-26T20:34:47.926Z,92.50
2019-06-26T20:37:20.771Z,92.60
2019-06-26T20:39:54.247Z,92.80
2019-06-26T20:42:26.794Z,92.90
2019-06-26T20:44:59.177Z,93.10
2019-06-26T20:47:32.324Z,93.10
2019-06-26T20:50:05.500Z,93.30
2019-06-26T20:52:38.092Z,93.40
2019-06-26T20:55:10.447Z,93.60
2019-06-26T20:57:42.754Z,93.80
2019-06-26T21:00:15.093Z,94.00
2019-06-26T21:02:47.373Z,94.10
2019-06-26T21:05:19.352Z,94.30
2019-06-26T21:07:53.402Z,94.50
2019-06-26T21:10:26.186Z,94.70
2019-06-26T21:12:59.504Z,94.90
2019-06-26T21:15:32.146Z,95.10
2019-06-26T21:18:05.249Z,95.30
2019-06-26T21:20:37.617Z,95.50
2019-06-26T21:23:18.397Z,95.50
2019-06-26T21:25:44.833Z,95.50
2019-06-26T21:28:17.366Z,95.70
2019-06-26T21:30:50.723Z,95.90
2019-06-26T21:33:23.206Z,95.80
2019-06-26T21:36:05.298Z,95.80
2019-06-26T21:38:37.995Z,96.00
2019-06-26T21:41:10.673Z,96.10
2019-06-26T21:43:43.043Z,96.10
2019-06-26T21:46:15.330Z,96.20
2019-06-26T21:48:48.171Z,96.00
2019-06-26T21:51:20.163Z,96.00
2019-06-26T21:53:53.089Z,96.30
2019-06-26T21:56:25.559Z,96.20
2019-06-26T21:58:57.763Z,95.80
2019-06-26T22:04:02.666Z,94.40
2019-06-26T22:09:08.398Z,99.90
2019-06-26T22:11:41.335Z,94.40
2019-06-26T22:14:12.965Z,94.40
2019-06-26T22:16:44.989Z,94.50
2019-06-26T22:19:17.266Z,94.70
2019-06-26T22:21:50.607Z,94.80
2019-06-26T22:24:22.722Z,94.80
2019-06-26T22:29:28.454Z,94.70
2019-06-26T22:32:01.485Z,95.00
2019-06-26T22:34:33.405Z,95.10
2019-06-26T22:39:39.331Z,94.80
2019-06-26T22:44:44.058Z,95.20
2019-06-26T22:47:16.773Z,95.70
2019-06-26T22:49:49.324Z,96.00
2019-06-26T22:52:22.024Z,99.90
2019-06-26T22:54:53.751Z,99.20
2019-06-26T22:57:25.565Z,97.00
2019-06-26T22:59:57.580Z,97.30
2019-06-26T23:02:29.264Z,97.50
2019-06-26T23:05:01.182Z,99.90
2019-06-26T23:07:39.720Z,98.00
2019-06-26T23:10:20.775Z,98.30
2019-06-26T23:18:00.341Z,99.90
2019-06-26T23:20:32.321Z,99.90
2019-06-26T23:23:03.977Z,99.90
2019-06-26T23:38:19.139Z,99.90
2019-06-26T23:40:51.426Z,99.90
2019-06-26T23:43:23.479Z,99.90
2019-06-26T23:45:55.372Z,99.90
2019-06-26T23:53:31.313Z,99.90
2019-06-26T23:56:03.049Z,99.90
2019-06-26T23:58:35.168Z,99.90
